createdAt,value
2019-02-19T00:01:26.994Z,16.46
2019-02-19T00:03:53.643Z,16.46
2019-02-19T00:06:20.331Z,16.44
2019-02-19T00:08:46.983Z,16.44
2019-02-19T00:11:13.643Z,16.46
2019-02-19T00:13:40.308Z,16.45
2019-02-19T00:16:06.971Z,16.45
2019-02-19T00:18:33.635Z,16.45
2019-02-19T00:21:00.304Z,16.49
2019-02-19T00:23:26.971Z,16.46
2019-02-19T00:25:53.652Z,16.51
2019-02-19T00:28:20.311Z,16.50
2019-02-19T00:30:46.975Z,16.52
2019-02-19T00:33:13.635Z,16.44
2019-02-19T00:35:40.284Z,16.47
2019-02-19T00:38:06.989Z,16.48
2019-02-19T00:40:33.729Z,16.42
2019-02-19T00:43:00.415Z,16.43
2019-02-19T00:45:27.071Z,16.40
2019-02-19T00:47:53.779Z,16.48
2019-02-19T00:50:20.434Z,16.43
2019-02-19T00:52:47.094Z,16.43
2019-02-19T00:55:13.870Z,16.49
2019-02-19T00:57:40.541Z,16.38
2019-02-19T01:00:07.250Z,16.45
2019-02-19T01:02:33.902Z,16.42
2019-02-19T01:05:00.605Z,16.44
2019-02-19T01:07:27.263Z,16.45
2019-02-19T01:09:54.049Z,16.50
2019-02-19T01:12:20.717Z,16.41
2019-02-19T01:14:47.380Z,16.44
2019-02-19T01:17:14.085Z,16.41
2019-02-19T01:19:40.727Z,16.48
2019-02-19T01:22:07.491Z,16.44
2019-02-19T01:24:34.191Z,16.40
2019-02-19T01:27:00.876Z,16.34
2019-02-19T01:29:27.535Z,16.39
2019-02-19T01:31:54.193Z,16.41
2019-02-19T01:34:20.862Z,16.36
2019-02-19T01:36:47.522Z,16.36
2019-02-19T01:39:14.194Z,16.42
2019-02-19T01:41:40.834Z,16.42
2019-02-19T01:44:07.509Z,16.40
2019-02-19T01:46:34.151Z,16.42
2019-02-19T01:49:00.861Z,16.40
2019-02-19T01:51:27.525Z,16.39
2019-02-19T01:53:54.201Z,16.39
2019-02-19T01:56:20.959Z,16.38
2019-02-19T01:58:47.629Z,16.39
2019-02-19T02:01:17.020Z,16.38
2019-02-19T02:03:43.689Z,16.37
2019-02-19T02:06:10.552Z,16.37
2019-02-19T02:08:37.199Z,16.33
2019-02-19T02:11:03.892Z,16.38
2019-02-19T02:13:30.551Z,16.28
2019-02-19T02:15:57.207Z,16.29
2019-02-19T02:18:23.875Z,16.31
2019-02-19T02:20:50.554Z,16.36
2019-02-19T02:23:17.210Z,16.34
2019-02-19T02:25:43.858Z,16.34
2019-02-19T02:28:10.578Z,16.33
2019-02-19T02:30:37.243Z,16.28
2019-02-19T02:33:03.903Z,16.33
2019-02-19T02:35:30.594Z,16.36
2019-02-19T02:37:57.265Z,16.75
2019-02-19T02:40:23.911Z,16.90
2019-02-19T02:42:50.562Z,16.85
2019-02-19T02:45:17.367Z,16.75
2019-02-19T02:47:44.024Z,16.60
2019-02-19T02:50:10.673Z,16.47
2019-02-19T02:52:37.346Z,16.44
2019-02-19T02:55:04.056Z,16.37
2019-02-19T02:57:30.697Z,16.40
2019-02-19T02:59:57.497Z,16.35
2019-02-19T03:02:24.189Z,16.37
2019-02-19T03:04:50.800Z,16.34
2019-02-19T03:07:17.462Z,16.33
2019-02-19T03:09:44.151Z,16.31
2019-02-19T03:12:10.810Z,16.27
2019-02-19T03:14:37.450Z,16.32
2019-02-19T03:17:04.121Z,16.27
2019-02-19T03:19:30.814Z,16.24
2019-02-19T03:21:57.478Z,16.27
2019-02-19T03:24:24.128Z,16.28
2019-02-19T03:26:50.797Z,16.26
2019-02-19T03:29:17.535Z,16.23
2019-02-19T03:31:44.217Z,16.21
2019-02-19T03:34:10.914Z,16.24
2019-02-19T03:36:37.565Z,16.15
2019-02-19T03:39:04.214Z,16.17
2019-02-19T03:41:30.871Z,16.17
2019-02-19T03:43:57.631Z,16.17
2019-02-19T03:46:24.333Z,16.17
2019-02-19T03:48:50.992Z,16.17
2019-02-19T03:51:17.682Z,16.12
2019-02-19T03:53:44.378Z,16.15
2019-02-19T03:56:10.984Z,16.11
2019-02-19T03:58:37.638Z,16.11
2019-02-19T04:01:04.292Z,16.10
2019-02-19T04:03:30.964Z,16.19
2019-02-19T04:05:57.608Z,16.17
2019-02-19T04:08:24.298Z,16.77
2019-02-19T04:10:50.949Z,17.00
2019-02-19T04:13:17.624Z,17.23
2019-02-19T04:15:44.338Z,17.50
2019-02-19T04:18:10.997Z,17.36
2019-02-19T04:20:37.675Z,17.59
2019-02-19T04:23:04.353Z,17.54
2019-02-19T04:25:31.011Z,17.58
2019-02-19T04:27:57.727Z,17.75
2019-02-19T04:30:24.391Z,17.76
2019-02-19T04:32:51.063Z,17.84
2019-02-19T04:35:17.776Z,17.81
2019-02-19T04:37:44.483Z,17.61
2019-02-19T04:40:11.187Z,17.05
2019-02-19T04:42:37.847Z,16.69
2019-02-19T04:45:04.556Z,16.66
2019-02-19T04:47:31.215Z,16.40
2019-02-19T04:49:57.926Z,16.37
2019-02-19T04:52:24.573Z,16.38
2019-02-19T04:54:51.306Z,16.23
2019-02-19T04:57:17.954Z,16.42
2019-02-19T04:59:44.605Z,16.42
2019-02-19T05:02:11.328Z,16.34
2019-02-19T05:04:38.033Z,16.33
2019-02-19T05:07:04.679Z,16.53
2019-02-19T05:09:31.389Z,16.43
2019-02-19T05:11:58.061Z,16.67
2019-02-19T05:14:24.766Z,16.54
2019-02-19T05:16:51.448Z,16.58
2019-02-19T05:19:18.107Z,16.73
2019-02-19T05:21:44.769Z,16.73
2019-02-19T05:24:11.467Z,16.63
2019-02-19T05:26:38.159Z,16.76
2019-02-19T05:29:05.057Z,16.75
2019-02-19T05:31:31.808Z,16.77
2019-02-19T05:33:58.473Z,16.77
2019-02-19T05:36:25.140Z,16.75
2019-02-19T05:38:51.877Z,16.76
2019-02-19T05:41:18.541Z,16.69
2019-02-19T05:43:45.206Z,16.72
2019-02-19T05:46:11.894Z,16.63
2019-02-19T05:48:38.559Z,16.66
2019-02-19T05:51:05.219Z,16.63
2019-02-19T05:53:31.868Z,16.58
2019-02-19T05:55:58.551Z,16.44
2019-02-19T05:58:25.213Z,16.40
2019-02-19T06:00:51.932Z,16.42
2019-02-19T06:03:18.600Z,16.26
2019-02-19T06:05:45.253Z,15.71
2019-02-19T06:08:11.924Z,15.37
2019-02-19T06:10:38.701Z,15.29
2019-02-19T06:13:05.368Z,15.58
2019-02-19T06:15:32.025Z,16.06
2019-02-19T06:17:58.696Z,15.99
2019-02-19T06:20:25.395Z,16.07
2019-02-19T06:22:52.043Z,16.01
2019-02-19T06:25:18.740Z,16.02
2019-02-19T06:27:45.402Z,16.25
2019-02-19T06:30:12.082Z,16.23
2019-02-19T06:32:38.783Z,16.78
2019-02-19T06:35:05.458Z,16.33
2019-02-19T06:37:32.136Z,16.39
2019-02-19T06:39:58.816Z,16.48
2019-02-19T06:42:25.634Z,16.45
2019-02-19T06:44:52.296Z,16.38
2019-02-19T06:47:18.958Z,16.42
2019-02-19T06:49:45.639Z,16.35
2019-02-19T06:52:12.386Z,16.44
2019-02-19T06:54:39.050Z,16.60
2019-02-19T06:57:05.718Z,16.56
2019-02-19T06:59:32.377Z,16.58
2019-02-19T07:01:59.046Z,16.60
2019-02-19T07:04:25.726Z,16.55
2019-02-19T07:06:52.420Z,16.49
2019-02-19T07:09:19.090Z,16.53
2019-02-19T07:11:45.758Z,16.53
2019-02-19T07:14:12.400Z,16.69
2019-02-19T07:16:39.062Z,16.89
2019-02-19T07:19:05.735Z,16.94
2019-02-19T07:21:32.404Z,16.88
2019-02-19T07:24:04.380Z,16.84
2019-02-19T07:26:26.758Z,16.78
2019-02-19T07:28:53.416Z,16.83
2019-02-19T07:31:20.082Z,17.11
2019-02-19T07:33:46.749Z,17.00
2019-02-19T07:36:13.409Z,17.03
2019-02-19T07:38:40.071Z,17.13
2019-02-19T07:41:06.725Z,17.05
2019-02-19T07:43:33.395Z,17.25
2019-02-19T07:46:07.930Z,17.14
2019-02-19T07:48:35.289Z,17.44
2019-02-19T07:51:02.494Z,17.45
2019-02-19T07:53:31.630Z,17.50
2019-02-19T07:55:55.912Z,17.53
2019-02-19T07:58:22.585Z,17.43
2019-02-19T08:00:49.290Z,17.35
2019-02-19T08:03:15.957Z,17.52
2019-02-19T08:05:42.693Z,17.75
2019-02-19T08:08:09.505Z,17.66
2019-02-19T08:10:36.229Z,17.69
2019-02-19T08:13:02.895Z,17.75
2019-02-19T08:15:29.707Z,17.88
2019-02-19T08:17:56.305Z,17.92
2019-02-19T08:20:23.027Z,18.01
2019-02-19T08:22:49.727Z,17.84
2019-02-19T08:25:16.442Z,17.93
2019-02-19T08:27:43.099Z,17.95
2019-02-19T08:30:11.152Z,18.14
2019-02-19T08:32:36.459Z,18.17
2019-02-19T08:35:03.136Z,18.13
2019-02-19T08:37:29.798Z,18.03
2019-02-19T08:39:56.487Z,18.10
2019-02-19T08:42:23.172Z,18.02
2019-02-19T08:44:49.836Z,18.08
2019-02-19T08:47:16.633Z,18.14
2019-02-19T08:49:43.288Z,18.08
2019-02-19T08:52:09.939Z,18.06
2019-02-19T08:54:36.619Z,18.23
2019-02-19T08:57:03.341Z,18.45
2019-02-19T08:59:29.999Z,18.28
2019-02-19T09:01:56.781Z,18.42
2019-02-19T09:04:23.435Z,18.31
2019-02-19T09:06:50.114Z,18.30
2019-02-19T09:09:16.838Z,18.32
2019-02-19T09:11:43.496Z,18.28
2019-02-19T09:14:10.202Z,18.25
2019-02-19T09:16:36.897Z,18.31
2019-02-19T09:19:03.563Z,18.08
2019-02-19T09:21:30.235Z,18.30
2019-02-19T09:23:58.462Z,18.33
2019-02-19T09:26:23.748Z,18.31
2019-02-19T09:28:50.478Z,18.39
2019-02-19T09:31:17.185Z,18.24
2019-02-19T09:33:43.871Z,18.29
2019-02-19T09:36:10.550Z,18.32
2019-02-19T09:38:37.221Z,18.26
2019-02-19T09:41:03.906Z,18.09
2019-02-19T09:43:35.451Z,18.05
2019-02-19T09:45:58.966Z,18.12
2019-02-19T09:48:23.928Z,17.94
2019-02-19T09:50:50.613Z,17.82
2019-02-19T09:53:17.278Z,17.92
2019-02-19T09:55:43.965Z,17.79
2019-02-19T09:58:10.619Z,17.88
2019-02-19T10:00:37.271Z,17.84
2019-02-19T10:03:03.981Z,17.97
2019-02-19T10:05:30.730Z,17.78
2019-02-19T10:07:57.401Z,17.90
2019-02-19T10:10:24.075Z,17.75
2019-02-19T10:12:50.824Z,17.69
2019-02-19T10:15:17.482Z,17.89
2019-02-19T10:17:44.194Z,17.89
2019-02-19T10:20:10.924Z,17.93
2019-02-19T10:22:37.586Z,17.88
2019-02-19T10:25:04.245Z,17.84
2019-02-19T10:27:30.961Z,17.84
2019-02-19T10:29:57.622Z,17.88
2019-02-19T10:32:24.327Z,17.86
2019-02-19T10:34:51.034Z,17.95
2019-02-19T10:37:17.698Z,18.21
2019-02-19T10:39:44.355Z,18.20
2019-02-19T10:42:11.024Z,18.50
2019-02-19T10:44:37.718Z,18.42
2019-02-19T10:47:04.369Z,18.36
2019-02-19T10:49:31.051Z,18.33
2019-02-19T10:51:57.737Z,18.03
2019-02-19T10:54:24.501Z,18.03
2019-02-19T10:56:51.183Z,17.98
2019-02-19T10:59:17.908Z,17.81
2019-02-19T11:01:44.593Z,17.89
2019-02-19T11:04:11.267Z,18.03
2019-02-19T11:06:39.051Z,18.18
2019-02-19T11:09:04.635Z,18.19
2019-02-19T11:11:31.331Z,18.25
2019-02-19T11:13:58.024Z,18.19
2019-02-19T11:16:24.686Z,18.53
2019-02-19T11:18:51.359Z,17.94
2019-02-19T11:21:19.890Z,18.05
2019-02-19T11:23:44.735Z,18.19
2019-02-19T11:26:11.419Z,17.95
2019-02-19T11:28:38.092Z,17.96
2019-02-19T11:31:04.758Z,18.08
2019-02-19T11:33:31.433Z,17.90
2019-02-19T11:35:58.115Z,18.01
2019-02-19T11:38:24.764Z,18.29
2019-02-19T11:40:51.505Z,18.20
2019-02-19T11:43:18.158Z,17.88
2019-02-19T11:45:44.826Z,18.09
2019-02-19T11:48:11.502Z,18.13
2019-02-19T11:50:38.178Z,18.10
2019-02-19T11:53:04.876Z,17.87
2019-02-19T11:55:31.534Z,18.13
2019-02-19T11:57:58.210Z,17.79
2019-02-19T12:00:24.876Z,18.05
2019-02-19T12:02:51.538Z,17.86
2019-02-19T12:05:18.234Z,18.25
2019-02-19T12:07:44.899Z,17.97
2019-02-19T12:10:12.154Z,18.04
2019-02-19T12:12:38.240Z,18.30
2019-02-19T12:15:04.959Z,18.16
2019-02-19T12:17:31.714Z,18.19
2019-02-19T12:19:58.409Z,18.31
2019-02-19T12:22:27.669Z,18.29
2019-02-19T12:24:54.377Z,18.69
2019-02-19T12:27:21.067Z,18.59
2019-02-19T12:29:47.742Z,18.72
2019-02-19T12:32:14.415Z,19.06
2019-02-19T12:34:41.116Z,18.97
2019-02-19T12:37:07.776Z,18.85
2019-02-19T12:39:34.455Z,19.11
2019-02-19T12:42:01.124Z,19.03
2019-02-19T12:44:27.804Z,19.21
2019-02-19T12:46:54.512Z,19.18
2019-02-19T12:49:21.147Z,19.26
2019-02-19T12:51:47.820Z,19.21
2019-02-19T12:54:14.495Z,19.36
2019-02-19T12:56:41.209Z,19.43
2019-02-19T12:59:07.901Z,19.45
2019-02-19T13:01:34.570Z,19.45
2019-02-19T13:04:01.224Z,19.36
2019-02-19T13:06:27.885Z,19.44
2019-02-19T13:08:54.570Z,19.13
2019-02-19T13:11:21.277Z,19.19
2019-02-19T13:13:48.003Z,19.45
2019-02-19T13:16:14.673Z,19.73
2019-02-19T13:18:41.446Z,19.33
2019-02-19T13:21:08.341Z,19.26
2019-02-19T13:23:35.041Z,19.11
2019-02-19T13:26:01.689Z,18.95
2019-02-19T13:28:28.340Z,18.93
2019-02-19T13:30:55.061Z,19.06
2019-02-19T13:33:21.825Z,19.17
2019-02-19T13:35:48.530Z,19.24
2019-02-19T13:38:15.204Z,19.05
2019-02-19T13:40:41.948Z,19.35
2019-02-19T13:43:08.598Z,19.43
2019-02-19T13:45:35.311Z,19.38
2019-02-19T13:48:06.025Z,19.17
2019-02-19T13:50:28.619Z,19.45
2019-02-19T13:52:55.313Z,19.64
2019-02-19T13:55:21.995Z,19.61
2019-02-19T13:57:48.662Z,18.97
2019-02-19T14:00:15.385Z,19.29
2019-02-19T14:02:42.070Z,19.27
2019-02-19T14:05:08.786Z,19.29
2019-02-19T14:07:35.465Z,19.39
2019-02-19T14:10:02.120Z,19.59
2019-02-19T14:12:28.819Z,19.64
2019-02-19T14:14:56.620Z,19.56
2019-02-19T14:17:23.297Z,19.66
2019-02-19T14:19:50.037Z,19.82
2019-02-19T14:22:16.723Z,19.74
2019-02-19T14:24:44.655Z,19.71
2019-02-19T14:27:11.356Z,19.87
2019-02-19T14:29:38.056Z,19.78
2019-02-19T14:32:06.049Z,19.67
2019-02-19T14:34:32.398Z,20.08
2019-02-19T14:36:59.078Z,19.55
2019-02-19T14:39:25.725Z,19.76
2019-02-19T14:41:52.450Z,19.78
2019-02-19T14:44:19.120Z,19.86
2019-02-19T14:46:45.850Z,19.54
2019-02-19T14:49:12.525Z,19.43
2019-02-19T14:51:39.205Z,19.82
2019-02-19T14:54:05.929Z,19.94
2019-02-19T14:56:32.616Z,19.64
2019-02-19T14:58:59.332Z,19.62
2019-02-19T15:01:26.069Z,19.47
2019-02-19T15:03:52.730Z,19.51
2019-02-19T15:06:19.440Z,19.60
2019-02-19T15:08:46.100Z,19.60
2019-02-19T15:11:12.863Z,19.29
2019-02-19T15:13:39.592Z,19.36
2019-02-19T15:16:06.371Z,19.33
2019-02-19T15:18:33.008Z,19.26
2019-02-19T15:20:59.711Z,19.28
2019-02-19T15:23:26.376Z,19.18
2019-02-19T15:25:53.071Z,19.30
2019-02-19T15:28:19.724Z,18.97
2019-02-19T15:30:46.460Z,19.28
2019-02-19T15:33:13.116Z,19.14
2019-02-19T15:35:39.839Z,19.30
2019-02-19T15:38:06.592Z,19.24
2019-02-19T15:40:33.431Z,19.14
2019-02-19T15:43:00.109Z,18.98
2019-02-19T15:45:26.787Z,19.10
2019-02-19T15:47:53.455Z,19.04
2019-02-19T15:50:20.118Z,18.96
2019-02-19T15:52:49.451Z,18.72
2019-02-19T15:55:16.108Z,18.92
2019-02-19T15:57:42.840Z,18.91
2019-02-19T16:00:09.499Z,19.03
2019-02-19T16:02:36.155Z,18.77
2019-02-19T16:05:02.847Z,19.07
2019-02-19T16:07:29.506Z,18.90
2019-02-19T16:09:56.176Z,18.98
2019-02-19T16:12:22.834Z,18.94
2019-02-19T16:14:49.498Z,18.95
2019-02-19T16:17:16.160Z,18.89
2019-02-19T16:19:42.832Z,18.91
2019-02-19T16:22:09.519Z,18.94
2019-02-19T16:24:36.214Z,18.90
2019-02-19T16:27:02.912Z,18.89
2019-02-19T16:29:29.587Z,18.85
2019-02-19T16:31:56.292Z,18.79
2019-02-19T16:34:22.955Z,18.81
2019-02-19T16:36:49.610Z,18.80
2019-02-19T16:39:16.275Z,18.81
2019-02-19T16:41:42.944Z,18.75
2019-02-19T16:44:09.598Z,18.74
2019-02-19T16:46:36.328Z,18.73
2019-02-19T16:49:03.006Z,18.60
2019-02-19T16:51:29.638Z,18.69
2019-02-19T16:53:56.310Z,18.69
2019-02-19T16:56:23.052Z,18.65
2019-02-19T16:58:49.700Z,18.39
2019-02-19T17:01:16.471Z,18.47
2019-02-19T17:03:43.193Z,18.46
2019-02-19T17:06:09.904Z,18.49
2019-02-19T17:08:36.615Z,18.50
2019-02-19T17:11:03.297Z,18.45
2019-02-19T17:13:29.962Z,18.38
2019-02-19T17:15:56.620Z,18.53
2019-02-19T17:18:23.346Z,18.38
2019-02-19T17:20:50.068Z,18.43
2019-02-19T17:23:16.729Z,18.23
2019-02-19T17:25:43.395Z,18.41
2019-02-19T17:28:10.065Z,18.21
2019-02-19T17:30:36.731Z,18.44
2019-02-19T17:33:03.392Z,18.30
2019-02-19T17:35:30.051Z,18.37
2019-02-19T17:37:56.702Z,18.35
2019-02-19T17:40:23.379Z,18.32
2019-02-19T17:42:51.634Z,18.22
2019-02-19T17:45:16.762Z,18.24
2019-02-19T17:47:43.423Z,18.19
2019-02-19T17:50:10.102Z,18.23
2019-02-19T17:52:36.872Z,18.15
2019-02-19T17:55:03.522Z,18.15
2019-02-19T17:57:30.172Z,18.10
2019-02-19T17:59:56.852Z,18.12
2019-02-19T18:02:23.500Z,18.07
2019-02-19T18:04:50.158Z,18.11
2019-02-19T18:07:16.896Z,18.02
2019-02-19T18:09:43.554Z,18.07
2019-02-19T18:12:10.202Z,18.02
2019-02-19T18:14:36.880Z,18.02
2019-02-19T18:17:03.732Z,18.00
2019-02-19T18:19:30.309Z,18.01
2019-02-19T18:21:57.001Z,17.97
2019-02-19T18:24:23.697Z,17.96
2019-02-19T18:26:50.479Z,18.00
2019-02-19T18:29:17.137Z,17.93
2019-02-19T18:31:43.814Z,17.88
2019-02-19T18:34:10.530Z,17.89
2019-02-19T18:36:37.188Z,17.87
2019-02-19T18:39:03.892Z,17.83
2019-02-19T18:41:30.650Z,17.85
2019-02-19T18:43:57.314Z,17.83
2019-02-19T18:46:24.025Z,17.82
2019-02-19T18:48:50.645Z,17.81
2019-02-19T18:51:17.372Z,17.81
2019-02-19T18:53:44.034Z,17.80
2019-02-19T18:56:10.680Z,17.84
2019-02-19T18:58:37.350Z,17.80
2019-02-19T19:01:04.018Z,17.83
2019-02-19T19:03:30.787Z,17.87
2019-02-19T19:05:57.478Z,17.86
2019-02-19T19:08:24.143Z,17.88
2019-02-19T19:10:50.793Z,17.79
2019-02-19T19:13:17.511Z,17.88
2019-02-19T19:15:44.229Z,17.96
2019-02-19T19:18:10.899Z,17.98
2019-02-19T19:20:37.563Z,17.99
2019-02-19T19:23:04.229Z,17.93
2019-02-19T19:25:30.877Z,17.95
2019-02-19T19:27:57.605Z,18.01
2019-02-19T19:30:24.257Z,18.05
2019-02-19T19:32:50.925Z,18.02
2019-02-19T19:35:17.591Z,18.11
2019-02-19T19:37:44.332Z,17.98
2019-02-19T19:40:10.983Z,18.02
2019-02-19T19:42:37.692Z,18.04
2019-02-19T19:45:04.373Z,18.13
2019-02-19T19:47:31.031Z,18.02
2019-02-19T19:49:57.752Z,18.04
2019-02-19T19:52:24.405Z,17.96
2019-02-19T19:54:51.070Z,18.04
2019-02-19T19:57:17.712Z,17.94
2019-02-19T19:59:44.420Z,18.04
2019-02-19T20:02:11.073Z,17.99
2019-02-19T20:04:37.739Z,17.99
2019-02-19T20:07:04.409Z,17.99
2019-02-19T20:09:31.141Z,18.01
2019-02-19T20:11:57.797Z,17.99
2019-02-19T20:14:24.452Z,17.95
2019-02-19T20:16:51.101Z,17.99
2019-02-19T20:19:17.760Z,18.06
2019-02-19T20:21:44.416Z,18.23
2019-02-19T20:24:11.146Z,18.31
2019-02-19T20:26:37.784Z,18.31
2019-02-19T20:29:04.449Z,18.35
2019-02-19T20:31:31.104Z,18.24
2019-02-19T20:33:57.821Z,18.11
2019-02-19T20:36:24.466Z,18.03
2019-02-19T20:38:51.176Z,18.00
2019-02-19T20:41:17.844Z,17.98
2019-02-19T20:43:44.495Z,17.93
2019-02-19T20:46:11.147Z,17.90
2019-02-19T20:48:37.805Z,17.83
2019-02-19T20:51:04.460Z,17.77
2019-02-19T20:53:31.118Z,17.71
2019-02-19T20:55:57.831Z,17.73
2019-02-19T20:58:27.406Z,17.66
2019-02-19T21:00:54.112Z,17.60
2019-02-19T21:03:20.771Z,17.62
2019-02-19T21:05:47.425Z,17.60
2019-02-19T21:08:14.149Z,17.57
2019-02-19T21:10:40.794Z,17.53
2019-02-19T21:13:07.440Z,17.54
2019-02-19T21:15:34.151Z,17.53
2019-02-19T21:18:00.771Z,17.52
2019-02-19T21:20:27.486Z,17.47
2019-02-19T21:22:54.139Z,17.44
2019-02-19T21:25:20.835Z,17.40
2019-02-19T21:27:47.494Z,17.43
2019-02-19T21:30:14.228Z,17.37
2019-02-19T21:32:40.904Z,17.40
2019-02-19T21:35:07.566Z,17.37
2019-02-19T21:37:34.231Z,17.37
2019-02-19T21:40:00.909Z,17.40
2019-02-19T21:42:27.602Z,17.34
2019-02-19T21:44:54.249Z,17.30
2019-02-19T21:47:20.962Z,17.32
2019-02-19T21:49:47.613Z,17.31
2019-02-19T21:52:14.279Z,17.31
2019-02-19T21:54:40.951Z,17.30
2019-02-19T21:57:07.611Z,17.35
2019-02-19T21:59:34.334Z,17.25
2019-02-19T22:02:00.996Z,17.24
2019-02-19T22:04:27.712Z,17.25
2019-02-19T22:06:54.371Z,17.21
2019-02-19T22:09:21.031Z,17.24
2019-02-19T22:11:47.693Z,17.22
2019-02-19T22:14:14.343Z,17.24
2019-02-19T22:16:41.072Z,17.24
2019-02-19T22:19:07.778Z,17.24
2019-02-19T22:21:34.486Z,17.30
2019-02-19T22:24:01.145Z,17.28
2019-02-19T22:26:27.794Z,17.22
2019-02-19T22:28:54.462Z,17.20
2019-02-19T22:31:21.133Z,17.18
2019-02-19T22:33:47.780Z,17.23
2019-02-19T22:36:14.511Z,17.22
2019-02-19T22:38:41.174Z,17.23
2019-02-19T22:41:07.883Z,17.21
2019-02-19T22:43:34.615Z,17.21
2019-02-19T22:46:01.292Z,17.17
2019-02-19T22:48:27.917Z,17.20
2019-02-19T22:50:54.627Z,17.15
2019-02-19T22:53:21.353Z,17.20
2019-02-19T22:55:48.127Z,17.20
2019-02-19T22:58:14.782Z,17.17
2019-02-19T23:00:41.514Z,17.15
2019-02-19T23:03:08.119Z,17.12
2019-02-19T23:05:34.852Z,17.05
2019-02-19T23:08:01.519Z,17.18
2019-02-19T23:10:28.183Z,17.18
2019-02-19T23:12:54.842Z,17.17
2019-02-19T23:15:21.550Z,17.21
2019-02-19T23:17:48.209Z,17.14
2019-02-19T23:20:14.876Z,17.19
2019-02-19T23:22:41.659Z,17.21
2019-02-19T23:25:08.364Z,17.18
2019-02-19T23:27:34.994Z,17.16
2019-02-19T23:30:01.667Z,17.12
2019-02-19T23:32:28.331Z,17.14
2019-02-19T23:34:55.040Z,17.16
2019-02-19T23:37:21.708Z,17.15
2019-02-19T23:39:48.368Z,17.16
2019-02-19T23:42:15.033Z,17.15
2019-02-19T23:44:41.695Z,17.17
2019-02-19T23:47:08.368Z,17.12
2019-02-19T23:49:35.009Z,17.11
2019-02-19T23:52:01.684Z,17.08
2019-02-19T23:54:28.410Z,17.08
2019-02-19T23:56:55.085Z,17.14
2019-02-19T23:59:21.787Z,17.10
